NWS Watch, Warning, Advisory or Statement is in effect for Boone County, KY. View Alert

Weather Station Data

Station Data Captured at Five Minute Intervals Since Midnight Local Time


Date Time Temp. RH % Dew Pt. Wind Speed Wind Dir. Peak Wind Wind Chill Pressure Precip. Solar W/m2 ET
7/20/19 3:45p 91.0 63 76.7 3.0 S 7.0 91.0 29.878 0.00 688 0.000
7/20/19 3:40p 90.4 64 76.6 3.0 S 10.0 90.4 29.879 0.00 786 0.000
7/20/19 3:35p 90.1 65 76.7 3.0 SW 8.0 90.1 29.873 0.00 789 0.000
7/20/19 3:30p 90.0 64 76.2 5.0 S 10.0 90.0 29.879 0.00 795 0.000
7/20/19 3:25p 90.0 65 76.6 5.0 SSE 10.0 90.0 29.875 0.00 799 0.000
7/20/19 3:20p 90.3 64 76.5 4.0 S 10.0 90.3 29.877 0.00 802 0.000
7/20/19 3:15p 90.5 63 76.2 3.0 SSW 11.0 90.5 29.878 0.00 810 0.000
7/20/19 3:10p 90.2 65 76.8 4.0 SSW 12.0 90.2 29.875 0.00 816 0.000
7/20/19 3:05p 90.1 64 76.3 4.0 S 8.0 90.1 29.873 0.00 818 0.000
7/20/19 3:00p 89.9 66 77.0 4.0 S 9.0 89.9 29.870 0.00 825 0.024
7/20/19 2:55p 89.5 68 77.5 4.0 S 12.0 89.5 29.873 0.00 824 0.000
7/20/19 2:50p 89.2 65 75.9 5.0 S 14.0 89.2 29.878 0.00 832 0.000
7/20/19 2:45p 89.1 66 76.3 5.0 S 17.0 89.1 29.877 0.00 839 0.000
7/20/19 2:40p 89.1 66 76.3 6.0 S 12.0 89.1 29.878 0.00 843 0.000
7/20/19 2:35p 89.1 65 75.8 5.0 S 11.0 89.1 29.884 0.00 844 0.000
7/20/19 2:30p 89.6 66 76.7 4.0 SSW 10.0 89.6 29.887 0.00 847 0.000
7/20/19 2:25p 89.3 67 76.9 3.0 SSW 7.0 89.3 29.890 0.00 847 0.000
7/20/19 2:20p 89.0 67 76.6 4.0 SSE 9.0 89.0 29.883 0.00 853 0.000
7/20/19 2:15p 88.9 68 77.0 5.0 S 10.0 88.9 29.882 0.00 854 0.000
7/20/19 2:10p 88.8 68 76.9 5.0 SSE 11.0 88.8 29.885 0.00 858 0.000
7/20/19 2:05p 88.7 68 76.8 5.0 S 9.0 88.7 29.893 0.00 858 0.000
7/20/19 2:00p 88.8 66 76.0 5.0 S 9.0 88.8 29.902 0.00 866 0.021
7/20/19 1:55p 89.5 68 77.5 3.0 S 10.0 89.5 29.912 0.00 907 0.000
7/20/19 1:50p 89.5 67 77.1 2.0 S 5.0 89.5 29.914 0.00 957 0.000
7/20/19 1:45p 89.2 69 77.7 2.0 SSW 5.0 89.2 29.913 0.00 910 0.000
7/20/19 1:40p 88.6 69 77.1 3.0 SSW 6.0 88.6 29.914 0.00 875 0.000
7/20/19 1:35p 88.2 69 76.7 2.0 SSW 7.0 88.2 29.910 0.00 960 0.000
7/20/19 1:30p 87.7 71 77.1 3.0 SSW 6.0 87.7 29.910 0.00 899 0.000
7/20/19 1:25p 87.0 71 76.5 3.0 SSW 6.0 87.0 29.912 0.00 875 0.000
7/20/19 1:20p 87.2 70 76.2 3.0 SSW 8.0 87.2 29.915 0.00 173 0.000
7/20/19 1:15p 88.0 68 76.1 3.0 S 6.0 88.0 29.914 0.00 577 0.000
7/20/19 1:10p 88.0 70 77.0 3.0 S 7.0 88.0 29.914 0.00 911 0.000
7/20/19 1:05p 87.7 70 76.7 2.0 SSW 5.0 87.7 29.918 0.00 543 0.000
7/20/19 1:00p 88.2 69 76.7 4.0 SSW 8.0 88.2 29.918 0.00 913 0.022
7/20/19 12:55p 88.3 69 76.8 2.0 S 6.0 88.3 29.914 0.00 887 0.000
7/20/19 12:50p 87.9 70 76.9 3.0 SSW 8.0 87.9 29.912 0.00 878 0.000
7/20/19 12:45p 87.5 70 76.5 3.0 SSW 7.0 87.5 29.912 0.00 876 0.000
7/20/19 12:40p 87.6 69 76.2 3.0 S 6.0 87.6 29.912 0.00 652 0.000
7/20/19 12:35p 87.5 69 76.1 2.0 SSE 6.0 87.5 29.909 0.00 834 0.000
7/20/19 12:30p 87.5 69 76.1 3.0 S 9.0 87.5 29.912 0.00 852 0.000
7/20/19 12:25p 87.5 71 76.9 4.0 S 9.0 87.5 29.914 0.00 849 0.000
7/20/19 12:20p 87.5 71 76.9 2.0 SSW 4.0 87.5 29.913 0.00 823 0.000
7/20/19 12:15p 87.5 71 76.9 3.0 SSW 8.0 87.5 29.913 0.00 800 0.000
7/20/19 12:10p 87.0 73 77.3 2.0 SSW 5.0 87.0 29.911 0.00 789 0.000
7/20/19 12:05p 86.7 73 77.0 3.0 SSW 8.0 86.7 29.913 0.00 778 0.000
7/20/19 12:00p 86.5 73 76.8 3.0 S 5.0 86.5 29.913 0.00 790 0.015
7/20/19 11:55a 86.2 76 77.7 2.0 S 4.0 86.2 29.917 0.00 801 0.000
7/20/19 11:50a 85.7 75 76.9 3.0 SSE 6.0 85.7 29.917 0.00 812 0.000
7/20/19 11:45a 85.4 75 76.6 4.0 SSW 7.0 85.4 29.919 0.00 775 0.000
7/20/19 11:40a 85.5 74 76.3 3.0 S 6.0 85.5 29.921 0.00 744 0.000
7/20/19 11:35a 85.5 75 76.7 2.0 SSW 6.0 85.5 29.919 0.00 753 0.000
7/20/19 11:30a 85.1 73 75.5 2.0 W 4.0 85.1 29.921 0.00 595 0.000
7/20/19 11:25a 85.0 74 75.8 2.0 S 5.0 85.0 29.920 0.00 303 0.000
7/20/19 11:20a 84.9 75 76.1 2.0 SSE 4.0 84.9 29.920 0.00 178 0.000
7/20/19 11:15a 84.5 76 76.1 1.0 NE 3.0 84.5 29.924 0.00 193 0.000
7/20/19 11:10a 84.2 75 75.4 1.0 SSE 4.0 84.2 29.923 0.00 197 0.000
7/20/19 11:05a 84.1 76 75.7 1.0 N 3.0 84.1 29.924 0.00 171 0.000
7/20/19 11:00a 83.9 76 75.5 1.0 SSW 4.0 83.9 29.926 0.00 157 0.003
7/20/19 10:55a 83.9 76 75.5 2.0 NNW 5.0 83.9 29.926 0.00 123 0.000
7/20/19 10:50a 83.3 78 75.7 2.0 NNW 5.0 83.3 29.927 0.00 122 0.000
7/20/19 10:45a 83.0 78 75.4 1.0 S 3.0 83.0 29.927 0.00 127 0.000
7/20/19 10:40a 82.9 79 75.7 1.0 S 4.0 82.9 29.932 0.00 94 0.000
7/20/19 10:35a 82.8 80 76.0 2.0 NW 5.0 82.8 29.931 0.00 171 0.000
7/20/19 10:30a 82.5 79 75.3 1.0 S 3.0 82.5 29.935 0.00 85 0.000
7/20/19 10:25a 82.3 79 75.1 1.0 WNW 4.0 82.3 29.936 0.00 92 0.000
7/20/19 10:20a 82.1 79 74.9 3.0 NW 5.0 82.1 29.938 0.00 71 0.000
7/20/19 10:15a 81.8 80 75.0 2.0 NW 6.0 81.8 29.939 0.00 65 0.000
7/20/19 10:10a 81.5 80 74.7 1.0 WNW 2.0 81.5 29.932 0.00 67 0.000
7/20/19 10:05a 81.3 81 74.9 1.0 SSW 4.0 81.3 29.931 0.00 88 0.000
7/20/19 10:00a 80.8 81 74.4 1.0 S 5.0 80.8 29.932 0.00 416 0.006
7/20/19 9:55a 80.5 81 74.1 3.0 SSE 8.0 80.5 29.930 0.00 464 0.000
7/20/19 9:50a 80.3 82 74.3 2.0 S 6.0 80.3 29.929 0.00 426 0.000
7/20/19 9:45a 80.0 82 74.0 2.0 SSW 5.0 80.0 29.931 0.00 65 0.000
7/20/19 9:40a 79.7 82 73.7 4.0 S 9.0 79.7 29.930 0.00 68 0.000
7/20/19 9:35a 79.7 82 73.7 4.0 SSW 7.0 79.7 29.933 0.00 84 0.000
7/20/19 9:30a 79.6 82 73.6 3.0 S 6.0 79.6 29.934 0.00 69 0.000
7/20/19 9:25a 79.5 82 73.5 3.0 SSE 6.0 79.5 29.939 0.00 53 0.000
7/20/19 9:20a 79.4 83 73.8 2.0 S 6.0 79.4 29.944 0.00 96 0.000
7/20/19 9:15a 79.2 82 73.2 3.0 S 6.0 79.2 29.950 0.00 339 0.000
7/20/19 9:10a 79.0 83 73.4 3.0 S 6.0 79.0 29.951 0.00 316 0.000
7/20/19 9:05a 78.8 83 73.2 2.0 S 4.0 78.8 29.956 0.00 308 0.000
7/20/19 9:00a 78.4 83 72.8 3.0 S 6.0 78.4 29.957 0.00 290 0.002
7/20/19 8:55a 78.2 84 73.0 3.0 SSE 6.0 78.2 29.961 0.00 137 0.000
7/20/19 8:50a 78.0 84 72.8 2.0 S 5.0 78.0 29.964 0.00 56 0.000
7/20/19 8:45a 77.7 85 72.8 1.0 S 3.0 77.7 29.968 0.00 59 0.000
7/20/19 8:40a 77.4 85 72.5 1.0 S 3.0 77.4 29.971 0.00 56 0.000
7/20/19 8:35a 77.2 85 72.3 0.0 SSE 3.0 77.2 29.970 0.00 45 0.000
7/20/19 8:30a 77.0 85 72.1 0.0 SSE 3.0 77.0 29.971 0.00 42 0.000
7/20/19 8:25a 76.7 86 72.2 0.0 --- 0.0 76.7 29.969 0.00 39 0.000
7/20/19 8:20a 76.6 86 72.1 0.0 WNW 1.0 76.6 29.970 0.00 39 0.000
7/20/19 8:15a 76.4 86 71.9 0.0 NW 2.0 76.4 29.969 0.00 37 0.000
7/20/19 8:10a 76.2 86 71.7 1.0 NW 2.0 76.2 29.967 0.00 36 0.000
7/20/19 8:05a 76.0 86 71.5 0.0 NW 2.0 76.0 29.966 0.00 35 0.000
7/20/19 8:00a 75.9 86 71.4 0.0 --- 0.0 75.9 29.965 0.00 34 0.001
7/20/19 7:55a 75.7 87 71.6 0.0 --- 0.0 75.7 29.964 0.00 34 0.000
7/20/19 7:50a 75.6 87 71.5 0.0 --- 0.0 75.6 29.964 0.00 48 0.000
7/20/19 7:45a 75.4 86 70.9 0.0 --- 0.0 75.4 29.964 0.00 29 0.000
7/20/19 7:40a 75.3 86 70.8 0.0 --- 0.0 75.3 29.962 0.00 26 0.000
7/20/19 7:35a 75.1 87 71.0 0.0 --- 0.0 75.1 29.956 0.00 25 0.000
7/20/19 7:30a 75.1 87 71.0 0.0 SSW 1.0 75.1 29.950 0.00 24 0.000
7/20/19 7:25a 74.9 87 70.8 0.0 SSW 2.0 74.9 29.946 0.00 21 0.000
7/20/19 7:20a 74.9 87 70.8 0.0 SSW 1.0 74.9 29.947 0.00 19 0.000
7/20/19 7:15a 74.7 87 70.6 0.0 SSW 1.0 74.7 29.945 0.00 18 0.000
7/20/19 7:10a 74.7 86 70.2 0.0 SSW 1.0 74.7 29.944 0.00 16 0.000
7/20/19 7:05a 74.6 86 70.1 0.0 SSW 1.0 74.6 29.942 0.00 13 0.000
7/20/19 7:00a 74.6 86 70.1 1.0 SSW 2.0 74.6 29.943 0.00 12 0.000
7/20/19 6:55a 74.6 86 70.1 1.0 SSW 3.0 74.6 29.941 0.00 9 0.000
7/20/19 6:50a 74.7 86 70.2 1.0 SSW 3.0 74.7 29.940 0.00 7 0.000
7/20/19 6:45a 74.7 86 70.2 1.0 SSW 3.0 74.7 29.942 0.00 4 0.000
7/20/19 6:40a 74.7 86 70.2 1.0 SSW 2.0 74.7 29.944 0.00 0 0.000
7/20/19 6:35a 74.8 86 70.3 1.0 SSW 2.0 74.8 29.943 0.00 0 0.000
7/20/19 6:30a 74.8 86 70.3 2.0 SSW 3.0 74.8 29.940 0.00 0 0.000
7/20/19 6:25a 74.9 86 70.4 1.0 SSW 3.0 74.9 29.937 0.00 0 0.000
7/20/19 6:20a 74.9 86 70.4 1.0 SSW 2.0 74.9 29.939 0.00 0 0.000
7/20/19 6:15a 74.9 86 70.4 0.0 SSW 2.0 74.9 29.938 0.00 0 0.000
7/20/19 6:10a 75.0 86 70.5 0.0 SSW 1.0 75.0 29.940 0.00 0 0.000
7/20/19 6:05a 75.1 85 70.3 0.0 SSW 2.0 75.1 29.939 0.00 0 0.000
7/20/19 6:00a 75.1 85 70.3 0.0 SSW 1.0 75.1 29.940 0.00 0 0.001
7/20/19 5:55a 75.2 85 70.4 0.0 SSW 2.0 75.2 29.937 0.00 0 0.000
7/20/19 5:50a 75.3 85 70.5 0.0 --- 0.0 75.3 29.937 0.00 0 0.000
7/20/19 5:45a 75.3 85 70.5 0.0 --- 0.0 75.3 29.936 0.00 0 0.000
7/20/19 5:40a 75.4 85 70.6 0.0 --- 0.0 75.4 29.935 0.00 0 0.000
7/20/19 5:35a 75.5 85 70.7 0.0 --- 0.0 75.5 29.934 0.00 0 0.000
7/20/19 5:30a 75.5 85 70.7 0.0 SSW 2.0 75.5 29.934 0.00 0 0.000
7/20/19 5:25a 75.5 85 70.7 0.0 SSE 2.0 75.5 29.932 0.00 0 0.000
7/20/19 5:20a 75.6 85 70.8 0.0 SSE 1.0 75.6 29.923 0.00 0 0.000
7/20/19 5:15a 75.7 85 70.9 1.0 SSE 2.0 75.7 29.920 0.00 0 0.000
7/20/19 5:10a 75.7 85 70.9 0.0 SSE 1.0 75.7 29.919 0.00 0 0.000
7/20/19 5:05a 75.8 85 71.0 1.0 SSE 2.0 75.8 29.916 0.00 0 0.000
7/20/19 5:00a 75.8 85 71.0 1.0 SSE 2.0 75.8 29.913 0.00 0 0.001
7/20/19 4:55a 75.8 85 71.0 1.0 SSE 2.0 75.8 29.911 0.00 0 0.000
7/20/19 4:50a 75.9 85 71.1 1.0 SSE 2.0 75.9 29.909 0.00 0 0.000
7/20/19 4:45a 75.9 85 71.1 1.0 SSE 2.0 75.9 29.906 0.00 0 0.000
7/20/19 4:40a 75.9 85 71.1 0.0 SSE 2.0 75.9 29.907 0.00 0 0.000
7/20/19 4:35a 75.9 85 71.1 0.0 SSE 2.0 75.9 29.907 0.00 0 0.000
7/20/19 4:30a 75.9 85 71.1 0.0 SSE 1.0 75.9 29.907 0.00 0 0.000
7/20/19 4:25a 75.8 85 71.0 0.0 SSE 1.0 75.8 29.908 0.00 0 0.000
7/20/19 4:20a 75.8 85 71.0 0.0 SSE 1.0 75.8 29.908 0.00 0 0.000
7/20/19 4:15a 75.9 85 71.1 1.0 SSE 2.0 75.9 29.907 0.00 0 0.000
7/20/19 4:10a 75.9 85 71.1 1.0 SSE 2.0 75.9 29.907 0.00 0 0.000
7/20/19 4:05a 75.9 85 71.1 1.0 SSE 2.0 75.9 29.910 0.00 0 0.000
7/20/19 4:00a 75.9 85 71.1 0.0 SSE 1.0 75.9 29.909 0.00 0 0.001
7/20/19 3:55a 76.0 85 71.2 0.0 SSE 2.0 76.0 29.908 0.00 0 0.000
7/20/19 3:50a 76.0 85 71.2 0.0 --- 0.0 76.0 29.908 0.00 0 0.000
7/20/19 3:45a 76.1 85 71.3 0.0 SSE 1.0 76.1 29.906 0.00 0 0.000
7/20/19 3:40a 76.2 84 71.0 1.0 SSE 2.0 76.2 29.906 0.00 0 0.000
7/20/19 3:35a 76.2 85 71.4 0.0 SSE 2.0 76.2 29.906 0.00 0 0.000
7/20/19 3:30a 76.3 84 71.1 1.0 SSE 2.0 76.3 29.908 0.00 0 0.000
7/20/19 3:25a 76.4 84 71.2 1.0 SSE 2.0 76.4 29.909 0.00 0 0.000
7/20/19 3:20a 76.4 84 71.2 0.0 SSE 1.0 76.4 29.910 0.00 0 0.000
7/20/19 3:15a 76.5 84 71.3 0.0 SSE 2.0 76.5 29.908 0.00 0 0.000
7/20/19 3:10a 76.5 84 71.3 0.0 SSE 1.0 76.5 29.909 0.00 0 0.000
7/20/19 3:05a 76.6 84 71.4 0.0 --- 0.0 76.6 29.906 0.00 0 0.000
7/20/19 3:00a 76.7 84 71.5 0.0 SSE 1.0 76.7 29.903 0.00 0 0.001
7/20/19 2:55a 76.7 84 71.5 0.0 SSE 1.0 76.7 29.900 0.00 0 0.000
7/20/19 2:50a 76.8 84 71.6 1.0 S 3.0 76.8 29.896 0.00 0 0.000
7/20/19 2:45a 76.8 84 71.6 0.0 S 2.0 76.8 29.899 0.00 0 0.000
7/20/19 2:40a 76.8 84 71.6 0.0 S 4.0 76.8 29.898 0.00 0 0.000
7/20/19 2:35a 76.8 84 71.6 1.0 S 3.0 76.8 29.896 0.00 0 0.000
7/20/19 2:30a 76.8 84 71.6 1.0 S 4.0 76.8 29.894 0.00 0 0.000
7/20/19 2:25a 76.9 84 71.7 1.0 S 2.0 76.9 29.896 0.00 0 0.000
7/20/19 2:20a 77.0 84 71.8 1.0 S 2.0 77.0 29.894 0.00 0 0.000
7/20/19 2:15a 77.1 84 71.9 1.0 S 4.0 77.1 29.900 0.00 0 0.000
7/20/19 2:10a 77.2 84 72.0 1.0 S 4.0 77.2 29.903 0.00 0 0.000
7/20/19 2:05a 77.3 83 71.7 1.0 S 2.0 77.3 29.904 0.00 0 0.000
7/20/19 2:00a 77.5 83 71.9 1.0 S 2.0 77.5 29.907 0.00 0 0.001
7/20/19 1:55a 77.6 83 72.0 1.0 S 2.0 77.6 29.910 0.00 0 0.000
7/20/19 1:50a 77.6 83 72.0 1.0 S 2.0 77.6 29.912 0.00 0 0.000
7/20/19 1:45a 77.7 83 72.1 1.0 S 2.0 77.7 29.913 0.00 0 0.000
7/20/19 1:40a 77.7 83 72.1 1.0 S 4.0 77.7 29.909 0.00 0 0.000
7/20/19 1:35a 77.8 83 72.2 0.0 S 2.0 77.8 29.908 0.00 0 0.000
7/20/19 1:30a 77.9 83 72.3 1.0 S 2.0 77.9 29.908 0.00 0 0.000
7/20/19 1:25a 78.0 83 72.4 1.0 S 2.0 78.0 29.911 0.00 0 0.000
7/20/19 1:20a 78.1 83 72.5 1.0 S 4.0 78.1 29.910 0.00 0 0.000
7/20/19 1:15a 78.1 83 72.5 1.0 S 2.0 78.1 29.909 0.00 0 0.000
7/20/19 1:10a 78.2 83 72.6 1.0 S 2.0 78.2 29.911 0.00 0 0.000
7/20/19 1:05a 78.3 83 72.7 1.0 S 2.0 78.3 29.916 0.00 0 0.000
7/20/19 1:00a 78.4 83 72.8 2.0 S 4.0 78.4 29.919 0.00 0 0.001
7/20/19 12:55a 78.4 83 72.8 1.0 S 4.0 78.4 29.920 0.00 0 0.000
7/20/19 12:50a 78.5 83 72.9 1.0 S 2.0 78.5 29.922 0.00 0 0.000
7/20/19 12:45a 78.6 83 73.0 1.0 S 2.0 78.6 29.921 0.00 0 0.000
7/20/19 12:40a 78.7 83 73.1 1.0 S 4.0 78.7 29.920 0.00 0 0.000
7/20/19 12:35a 78.8 83 73.2 1.0 S 4.0 78.8 29.926 0.00 0 0.000
7/20/19 12:30a 78.9 83 73.3 1.0 S 4.0 78.9 29.927 0.00 0 0.000
7/20/19 12:25a 78.9 82 72.9 1.0 S 2.0 78.9 29.929 0.00 0 0.000
7/20/19 12:20a 79.1 82 73.1 1.0 S 2.0 79.1 29.927 0.00 0 0.000
7/20/19 12:15a 79.1 83 73.5 1.0 S 2.0 79.1 29.926 0.00 0 0.000
7/20/19 12:10a 79.1 83 73.5 1.0 S 4.0 79.1 29.926 0.00 0 0.000
7/20/19 12:05a 79.2 83 73.6 1.0 S 2.0 79.2 29.925 0.00 0 0.000
7/20/19 12:00a 79.3 83 73.7 0.0 S 2.0 79.3 29.926 0.00 0 0.001

12,924 Page Views